<?xml version="1.0" encoding="UTF-8" standalone="no" ?>
<gpx xmlns="http://www.topografix.com/GPX/1/1" xmlns:xsi="http://www.w3.org/2001/XMLSchema-instance" xsi:schemaLocation="http://www.topografix.com/GPX/1/1 http://www.topografix.com/GPX/1/1/gpx.xsd" version="1.1" creator="VisuGPX - https://www.visugpx.com">
  <metadata>
    <name>Port Titi</name>
  </metadata>
  <trk>
    <name><![CDATA[Port Titi]]></name>
    <trkseg>
      <trkpt lat="46.8478" lon="6.33457">
        <ele>855</ele>
        <time>2021-11-21T16:15:24+01:00</time>
      </trkpt>
      <trkpt lat="46.84889" lon="6.33319">
        <ele>855</ele>
        <time>2021-11-21T16:15:29+01:00</time>
      </trkpt>
      <trkpt lat="46.84965" lon="6.33306">
        <ele>854</ele>
        <time>2021-11-21T16:15:34+01:00</time>
      </trkpt>
      <trkpt lat="46.84962" lon="6.33251">
        <ele>856</ele>
        <time>2021-11-21T16:15:39+01:00</time>
      </trkpt>
      <trkpt lat="46.85029" lon="6.33173">
        <ele>868</ele>
        <time>2021-11-21T16:15:44+01:00</time>
      </trkpt>
      <trkpt lat="46.85032" lon="6.33062">
        <ele>873</ele>
        <time>2021-11-21T16:15:49+01:00</time>
      </trkpt>
      <trkpt lat="46.84924" lon="6.3298">
        <ele>876</ele>
        <time>2021-11-21T16:15:54+01:00</time>
      </trkpt>
      <trkpt lat="46.84871" lon="6.32993">
        <ele>873</ele>
        <time>2021-11-21T16:15:59+01:00</time>
      </trkpt>
      <trkpt lat="46.84762" lon="6.32916">
        <ele>874</ele>
        <time>2021-11-21T16:16:04+01:00</time>
      </trkpt>
      <trkpt lat="46.84657" lon="6.3286">
        <ele>880</ele>
        <time>2021-11-21T16:16:09+01:00</time>
      </trkpt>
      <trkpt lat="46.84586" lon="6.3289">
        <ele>884</ele>
        <time>2021-11-21T16:16:14+01:00</time>
      </trkpt>
      <trkpt lat="46.8451" lon="6.32924">
        <ele>887</ele>
        <time>2021-11-21T16:16:19+01:00</time>
      </trkpt>
      <trkpt lat="46.84375" lon="6.32882">
        <ele>902</ele>
        <time>2021-11-21T16:16:24+01:00</time>
      </trkpt>
      <trkpt lat="46.84319" lon="6.32882">
        <ele>900</ele>
        <time>2021-11-21T16:16:29+01:00</time>
      </trkpt>
      <trkpt lat="46.84216" lon="6.32757">
        <ele>905</ele>
        <time>2021-11-21T16:16:34+01:00</time>
      </trkpt>
      <trkpt lat="46.84108" lon="6.32813">
        <ele>904</ele>
        <time>2021-11-21T16:16:39+01:00</time>
      </trkpt>
      <trkpt lat="46.84052" lon="6.32787">
        <ele>903</ele>
        <time>2021-11-21T16:16:44+01:00</time>
      </trkpt>
      <trkpt lat="46.83885" lon="6.32577">
        <ele>903</ele>
        <time>2021-11-21T16:16:49+01:00</time>
      </trkpt>
      <trkpt lat="46.83782" lon="6.32268">
        <ele>895</ele>
        <time>2021-11-21T16:16:54+01:00</time>
      </trkpt>
      <trkpt lat="46.83756" lon="6.32225">
        <ele>896</ele>
        <time>2021-11-21T16:16:59+01:00</time>
      </trkpt>
      <trkpt lat="46.83711" lon="6.32208">
        <ele>895</ele>
        <time>2021-11-21T16:17:04+01:00</time>
      </trkpt>
      <trkpt lat="46.83629" lon="6.3207">
        <ele>904</ele>
        <time>2021-11-21T16:17:09+01:00</time>
      </trkpt>
      <trkpt lat="46.83559" lon="6.31967">
        <ele>903</ele>
        <time>2021-11-21T16:17:14+01:00</time>
      </trkpt>
      <trkpt lat="46.83547" lon="6.32015">
        <ele>897</ele>
        <time>2021-11-21T16:17:19+01:00</time>
      </trkpt>
      <trkpt lat="46.83503" lon="6.32053">
        <ele>888</ele>
        <time>2021-11-21T16:17:24+01:00</time>
      </trkpt>
      <trkpt lat="46.83503" lon="6.32083">
        <ele>887</ele>
        <time>2021-11-21T16:17:29+01:00</time>
      </trkpt>
      <trkpt lat="46.83433" lon="6.32173">
        <ele>874</ele>
        <time>2021-11-21T16:17:34+01:00</time>
      </trkpt>
      <trkpt lat="46.834" lon="6.32268">
        <ele>873</ele>
        <time>2021-11-21T16:17:39+01:00</time>
      </trkpt>
      <trkpt lat="46.83441" lon="6.3244">
        <ele>880</ele>
        <time>2021-11-21T16:17:44+01:00</time>
      </trkpt>
      <trkpt lat="46.83521" lon="6.32611">
        <ele>888</ele>
        <time>2021-11-21T16:17:49+01:00</time>
      </trkpt>
      <trkpt lat="46.83632" lon="6.3292">
        <ele>888</ele>
        <time>2021-11-21T16:17:54+01:00</time>
      </trkpt>
      <trkpt lat="46.8365" lon="6.33006">
        <ele>885</ele>
        <time>2021-11-21T16:17:59+01:00</time>
      </trkpt>
      <trkpt lat="46.83638" lon="6.3307">
        <ele>876</ele>
        <time>2021-11-21T16:18:04+01:00</time>
      </trkpt>
      <trkpt lat="46.83697" lon="6.33152">
        <ele>871</ele>
        <time>2021-11-21T16:18:09+01:00</time>
      </trkpt>
      <trkpt lat="46.8367" lon="6.33173">
        <ele>867</ele>
        <time>2021-11-21T16:18:14+01:00</time>
      </trkpt>
      <trkpt lat="46.83656" lon="6.33225">
        <ele>859</ele>
        <time>2021-11-21T16:18:19+01:00</time>
      </trkpt>
      <trkpt lat="46.83688" lon="6.33246">
        <ele>860</ele>
        <time>2021-11-21T16:18:24+01:00</time>
      </trkpt>
      <trkpt lat="46.83756" lon="6.33264">
        <ele>860</ele>
        <time>2021-11-21T16:18:29+01:00</time>
      </trkpt>
      <trkpt lat="46.83832" lon="6.33298">
        <ele>860</ele>
        <time>2021-11-21T16:18:34+01:00</time>
      </trkpt>
      <trkpt lat="46.83914" lon="6.33324">
        <ele>858</ele>
        <time>2021-11-21T16:18:39+01:00</time>
      </trkpt>
      <trkpt lat="46.84002" lon="6.33362">
        <ele>851</ele>
        <time>2021-11-21T16:18:44+01:00</time>
      </trkpt>
      <trkpt lat="46.84026" lon="6.33414">
        <ele>850</ele>
        <time>2021-11-21T16:18:49+01:00</time>
      </trkpt>
      <trkpt lat="46.84031" lon="6.33491">
        <ele>850</ele>
        <time>2021-11-21T16:18:54+01:00</time>
      </trkpt>
      <trkpt lat="46.84125" lon="6.33487">
        <ele>850</ele>
        <time>2021-11-21T16:18:59+01:00</time>
      </trkpt>
      <trkpt lat="46.84199" lon="6.33542">
        <ele>855</ele>
        <time>2021-11-21T16:19:04+01:00</time>
      </trkpt>
      <trkpt lat="46.84304" lon="6.33577">
        <ele>857</ele>
        <time>2021-11-21T16:19:09+01:00</time>
      </trkpt>
      <trkpt lat="46.84363" lon="6.33542">
        <ele>856</ele>
        <time>2021-11-21T16:19:14+01:00</time>
      </trkpt>
      <trkpt lat="46.84448" lon="6.33427">
        <ele>855</ele>
        <time>2021-11-21T16:19:19+01:00</time>
      </trkpt>
      <trkpt lat="46.84519" lon="6.33418">
        <ele>859</ele>
        <time>2021-11-21T16:19:24+01:00</time>
      </trkpt>
      <trkpt lat="46.8446" lon="6.33332">
        <ele>852</ele>
        <time>2021-11-21T16:19:29+01:00</time>
      </trkpt>
      <trkpt lat="46.84466" lon="6.33302">
        <ele>851</ele>
        <time>2021-11-21T16:19:34+01:00</time>
      </trkpt>
      <trkpt lat="46.84607" lon="6.33397">
        <ele>859</ele>
        <time>2021-11-21T16:19:39+01:00</time>
      </trkpt>
      <trkpt lat="46.8463" lon="6.33444">
        <ele>860</ele>
        <time>2021-11-21T16:19:44+01:00</time>
      </trkpt>
      <trkpt lat="46.8471" lon="6.33474">
        <ele>860</ele>
        <time>2021-11-21T16:19:49+01:00</time>
      </trkpt>
      <trkpt lat="46.84745" lon="6.335">
        <ele>859</ele>
        <time>2021-11-21T16:19:54+01:00</time>
      </trkpt>
      <trkpt lat="46.84771" lon="6.335">
        <ele>858</ele>
        <time>2021-11-21T16:19:59+01:00</time>
      </trkpt>
      <trkpt lat="46.84786" lon="6.33474">
        <ele>856</ele>
        <time>2021-11-21T16:20:04+01:00</time>
      </trkpt>
    </trkseg>
  </trk>
</gpx>